createdAt,value
2022-12-25T00:00:41.833Z,1.45
2022-12-25T00:03:08.709Z,1.00
2022-12-25T00:05:38.774Z,1.00
2022-12-25T00:08:06.608Z,0.70
2022-12-25T00:10:33.701Z,0.80
2022-12-25T00:13:00.219Z,0.50
2022-12-25T00:15:26.790Z,0.47
2022-12-25T00:17:53.303Z,0.50
2022-12-25T00:20:19.789Z,0.50
2022-12-25T00:22:46.449Z,0.60
2022-12-25T00:25:12.950Z,0.50
2022-12-25T00:27:39.443Z,0.57
2022-12-25T00:30:07.888Z,0.60
2022-12-25T00:32:37.577Z,0.70
2022-12-25T00:35:05.140Z,0.40
2022-12-25T00:37:31.666Z,0.52
2022-12-25T00:39:58.156Z,3.10
2022-12-25T00:42:26.887Z,3.00
2022-12-25T00:44:53.455Z,5.10
2022-12-25T00:47:20.028Z,4.75
2022-12-25T00:49:46.759Z,3.65
2022-12-25T00:52:13.314Z,3.92
2022-12-25T00:54:39.851Z,4.28
2022-12-25T00:57:06.374Z,2.35
2022-12-25T00:59:34.119Z,3.42
2022-12-25T01:02:21.390Z,2.80
2022-12-25T01:04:48.383Z,2.80
2022-12-25T01:07:16.869Z,2.80
2022-12-25T01:10:03.157Z,3.28
2022-12-25T01:12:30.546Z,3.03
2022-12-25T01:14:57.097Z,2.97
2022-12-25T01:17:23.641Z,2.22
2022-12-25T01:19:50.302Z,2.35
2022-12-25T01:22:16.823Z,2.20
2022-12-25T01:24:44.419Z,2.25
2022-12-25T01:27:11.624Z,2.00
2022-12-25T01:29:38.634Z,2.50
2022-12-25T01:32:06.160Z,2.30
2022-12-25T01:34:32.759Z,2.40
2022-12-25T01:36:59.300Z,2.15
2022-12-25T01:39:26.878Z,3.35
2022-12-25T01:41:53.370Z,3.10
2022-12-25T01:44:19.895Z,2.50
2022-12-25T01:46:46.377Z,2.35
2022-12-25T01:49:22.482Z,2.13
2022-12-25T01:52:00.672Z,1.70
2022-12-25T01:54:35.080Z,2.30
2022-12-25T01:57:06.596Z,1.70
2022-12-25T01:59:33.246Z,1.42
2022-12-25T02:02:00.339Z,1.45
2022-12-25T02:04:38.741Z,1.10
2022-12-25T02:07:16.840Z,1.95
2022-12-25T02:09:44.815Z,1.40
2022-12-25T02:12:18.429Z,2.17
2022-12-25T02:14:45.406Z,1.48
2022-12-25T02:17:27.373Z,1.20
2022-12-25T02:20:03.783Z,1.33
2022-12-25T02:22:39.534Z,1.15
2022-12-25T02:25:32.058Z,0.70
2022-12-25T02:27:58.486Z,1.00
2022-12-25T02:30:25.363Z,0.90
2022-12-25T02:33:20.361Z,1.02
2022-12-25T02:35:51.909Z,1.65
2022-12-25T02:38:33.050Z,2.17
2022-12-25T02:41:09.838Z,1.77
2022-12-25T02:44:01.650Z,3.25
2022-12-25T02:46:48.560Z,4.22
2022-12-25T02:49:41.826Z,3.40
2022-12-25T02:52:42.351Z,5.18
2022-12-25T02:55:34.749Z,3.05
2022-12-25T02:58:25.573Z,2.40
2022-12-25T03:01:23.394Z,1.27
2022-12-25T03:04:13.323Z,0.70
2022-12-25T03:06:46.395Z,0.60
2022-12-25T03:09:40.127Z,0.40
2022-12-25T03:12:48.455Z,1.50
2022-12-25T03:15:36.095Z,2.60
2022-12-25T03:18:06.895Z,2.08
2022-12-25T03:20:52.365Z,1.57
2022-12-25T03:23:40.227Z,1.02
2022-12-25T03:26:26.627Z,0.70
2022-12-25T03:28:55.528Z,0.50
2022-12-25T03:31:26.512Z,1.52
2022-12-25T03:34:45.666Z,2.00
2022-12-25T03:37:36.594Z,2.00
2022-12-25T03:41:12.895Z,1.83
2022-12-25T03:44:11.767Z,1.20
2022-12-25T03:47:14.773Z,0.40
2022-12-25T03:50:23.270Z,0.60
2022-12-25T03:53:11.333Z,1.90
2022-12-25T03:55:59.704Z,2.28
2022-12-25T03:58:46.273Z,1.42
2022-12-25T04:01:32.700Z,2.10
2022-12-25T04:04:17.912Z,2.97
2022-12-25T04:07:02.960Z,2.13
2022-12-25T04:09:48.096Z,2.10
2022-12-25T04:12:33.299Z,2.40
2022-12-25T04:15:18.250Z,2.00
2022-12-25T04:18:03.170Z,2.17
2022-12-25T04:20:48.166Z,1.75
2022-12-25T04:23:32.925Z,1.90
2022-12-25T04:26:18.402Z,2.40
2022-12-25T04:29:03.821Z,2.70
2022-12-25T04:31:48.662Z,2.33
2022-12-25T04:34:33.992Z,2.15
2022-12-25T04:37:00.539Z,2.80
2022-12-25T04:39:27.054Z,2.15
2022-12-25T04:41:53.593Z,3.08
2022-12-25T04:44:20.085Z,1.70
2022-12-25T04:46:46.717Z,1.75
2022-12-25T04:49:15.364Z,1.50
2022-12-25T04:51:41.946Z,1.70
2022-12-25T04:54:08.529Z,1.55
2022-12-25T04:56:40.065Z,1.30
2022-12-25T04:59:10.153Z,1.50
2022-12-25T05:01:36.772Z,1.40
2022-12-25T05:04:03.440Z,1.60
2022-12-25T05:06:30.010Z,2.10
2022-12-25T05:08:56.528Z,2.38
2022-12-25T05:11:23.177Z,2.22
2022-12-25T05:13:49.786Z,1.50
2022-12-25T05:16:19.785Z,1.45
2022-12-25T05:18:49.342Z,2.05
2022-12-25T05:21:15.891Z,1.52
2022-12-25T05:23:48.738Z,1.95
2022-12-25T05:26:18.240Z,1.13
2022-12-25T05:28:44.930Z,0.82
2022-12-25T05:31:11.640Z,1.52
2022-12-25T05:33:38.234Z,1.10
2022-12-25T05:36:07.180Z,1.20
2022-12-25T05:38:34.073Z,0.90
2022-12-25T05:41:01.284Z,1.00
2022-12-25T05:43:28.549Z,0.88
2022-12-25T05:45:55.163Z,0.77
2022-12-25T05:48:21.671Z,0.73
2022-12-25T05:50:48.269Z,0.98
2022-12-25T05:53:17.278Z,0.60
2022-12-25T05:55:43.791Z,1.23
2022-12-25T05:58:11.858Z,10.90
2022-12-25T06:00:39.055Z,8.13
2022-12-25T06:03:05.707Z,7.70
2022-12-25T06:05:32.615Z,4.60
2022-12-25T06:07:59.124Z,5.45
2022-12-25T06:10:25.657Z,2.50
2022-12-25T06:12:52.133Z,2.85
2022-12-25T06:15:18.721Z,3.15
2022-12-25T06:17:45.297Z,2.78
2022-12-25T06:20:11.862Z,1.10
2022-12-25T06:22:38.360Z,2.17
2022-12-25T06:25:05.322Z,2.92
2022-12-25T06:27:31.833Z,2.58
2022-12-25T06:29:58.404Z,1.80
2022-12-25T06:32:24.908Z,1.10
2022-12-25T06:34:51.488Z,1.20
2022-12-25T06:37:18.031Z,1.20
2022-12-25T06:39:44.571Z,1.60
2022-12-25T06:42:11.064Z,1.20
2022-12-25T06:44:38.071Z,1.10
2022-12-25T06:47:04.694Z,1.50
2022-12-25T06:49:31.279Z,1.50
2022-12-25T06:51:57.812Z,1.05
2022-12-25T06:54:24.362Z,0.93
2022-12-25T06:56:51.128Z,1.30
2022-12-25T06:59:17.669Z,1.23
2022-12-25T07:01:53.540Z,1.92
2022-12-25T07:04:22.998Z,1.20
2022-12-25T07:06:49.481Z,1.52
2022-12-25T07:09:16.052Z,1.85
2022-12-25T07:11:43.635Z,1.50
2022-12-25T07:14:23.743Z,1.45
2022-12-25T07:16:51.614Z,2.00
2022-12-25T07:19:19.184Z,1.15
2022-12-25T07:21:46.144Z,1.65
2022-12-25T07:24:18.364Z,1.40
2022-12-25T07:26:44.905Z,1.42
2022-12-25T07:29:11.482Z,1.77
2022-12-25T07:31:38.040Z,1.20
2022-12-25T07:34:04.605Z,1.25
2022-12-25T07:36:31.197Z,1.55
2022-12-25T07:38:57.734Z,2.10
2022-12-25T07:41:24.440Z,1.73
2022-12-25T07:43:58.326Z,2.72
2022-12-25T07:46:25.005Z,4.20
2022-12-25T07:48:51.878Z,4.80
2022-12-25T07:51:18.398Z,4.75
2022-12-25T07:53:45.222Z,5.32
2022-12-25T07:56:14.447Z,4.20
2022-12-25T07:58:41.744Z,4.53
2022-12-25T08:01:14.893Z,4.70
2022-12-25T08:03:41.658Z,7.63
2022-12-25T08:06:09.686Z,5.47
2022-12-25T08:08:37.519Z,7.07
2022-12-25T08:11:04.471Z,5.05
2022-12-25T08:13:31.815Z,5.07
2022-12-25T08:16:00.468Z,5.65
2022-12-25T08:18:30.091Z,5.35
2022-12-25T08:20:57.514Z,3.88
2022-12-25T08:23:24.084Z,4.00
2022-12-25T08:25:50.583Z,3.70
2022-12-25T08:28:17.056Z,4.55
2022-12-25T08:30:43.620Z,3.95
2022-12-25T08:33:10.223Z,3.90
2022-12-25T08:35:36.957Z,3.65
2022-12-25T08:38:03.449Z,3.40
2022-12-25T08:40:30.012Z,3.42
2022-12-25T08:42:57.205Z,3.15
2022-12-25T08:45:24.998Z,2.80
2022-12-25T08:47:55.545Z,2.25
2022-12-25T08:50:23.106Z,4.43
2022-12-25T08:52:50.293Z,6.28
2022-12-25T08:55:16.863Z,1.73
2022-12-25T08:57:43.684Z,3.42
2022-12-25T09:00:10.679Z,3.28
2022-12-25T09:02:37.366Z,1.90
2022-12-25T09:05:04.226Z,2.33
2022-12-25T09:07:30.726Z,2.40
2022-12-25T09:09:57.277Z,1.67
2022-12-25T09:12:23.981Z,2.35
2022-12-25T09:14:50.552Z,3.63
2022-12-25T09:17:17.064Z,3.75
2022-12-25T09:19:43.793Z,4.22
2022-12-25T09:22:10.344Z,5.28
2022-12-25T09:24:39.138Z,3.17
2022-12-25T09:27:05.634Z,4.25
2022-12-25T09:29:32.189Z,4.43
2022-12-25T09:31:58.690Z,4.20
2022-12-25T09:34:25.208Z,3.85
2022-12-25T09:36:51.711Z,3.58
2022-12-25T09:39:18.232Z,5.00
2022-12-25T09:42:34.386Z,3.90
2022-12-25T09:45:10.822Z,3.88
2022-12-25T09:47:41.787Z,4.05
2022-12-25T09:50:13.871Z,4.60
2022-12-25T09:52:48.852Z,5.78
2022-12-25T09:55:26.727Z,5.78
2022-12-25T09:58:00.437Z,4.55
2022-12-25T10:00:38.074Z,4.15
2022-12-25T10:03:32.887Z,4.95
2022-12-25T10:06:06.248Z,6.22
2022-12-25T10:09:04.742Z,4.28
2022-12-25T10:12:13.030Z,6.10
2022-12-25T10:15:01.212Z,4.28
2022-12-25T10:18:07.780Z,4.65
2022-12-25T10:20:50.897Z,1.70
2022-12-25T10:23:30.533Z,1.98
2022-12-25T10:25:57.209Z,1.67
2022-12-25T10:28:33.147Z,1.48
2022-12-25T10:31:05.667Z,1.48
2022-12-25T10:33:32.196Z,1.40
2022-12-25T10:35:59.495Z,0.88
2022-12-25T10:38:26.051Z,1.52
2022-12-25T10:41:07.760Z,1.10
2022-12-25T10:46:12.043Z,1.73
2022-12-25T10:48:42.980Z,1.40
2022-12-25T10:51:09.606Z,1.40
2022-12-25T10:53:42.781Z,1.67
2022-12-25T10:56:18.040Z,1.83
2022-12-25T10:58:45.065Z,1.88
2022-12-25T11:01:13.111Z,1.20
2022-12-25T11:03:43.955Z,1.50
2022-12-25T11:06:25.746Z,1.35
2022-12-25T11:11:24.180Z,1.43
2022-12-25T11:13:54.685Z,1.25
2022-12-25T11:16:35.469Z,0.93
2022-12-25T11:19:02.755Z,1.00
2022-12-25T11:21:34.782Z,1.45
2022-12-25T11:24:04.389Z,0.80
2022-12-25T11:26:52.358Z,0.90
2022-12-25T11:29:36.508Z,0.80
2022-12-25T11:32:05.647Z,0.85
2022-12-25T11:34:45.081Z,1.02
2022-12-25T11:37:18.236Z,0.80
2022-12-25T11:39:45.026Z,1.13
2022-12-25T11:42:17.472Z,1.10
2022-12-25T11:44:51.884Z,1.00
2022-12-25T11:47:35.075Z,1.00
2022-12-25T11:50:25.749Z,0.70
2022-12-25T11:52:53.410Z,0.60
2022-12-25T11:55:43.166Z,1.00
2022-12-25T11:58:34.340Z,0.70
2022-12-25T12:01:04.830Z,0.98
2022-12-25T12:03:36.126Z,0.85
2022-12-25T12:06:30.268Z,0.80
2022-12-25T12:09:17.438Z,0.60
2022-12-25T12:11:53.497Z,0.73
2022-12-25T12:14:39.485Z,0.60
2022-12-25T12:17:12.275Z,0.70
2022-12-25T12:19:39.092Z,0.85
2022-12-25T12:22:05.961Z,0.70
2022-12-25T12:24:37.990Z,0.77
2022-12-25T12:27:17.503Z,0.77
2022-12-25T12:29:47.853Z,0.55
2022-12-25T12:32:35.257Z,0.65
2022-12-25T12:35:13.136Z,0.40
2022-12-25T12:37:41.164Z,0.30
2022-12-25T12:40:27.697Z,0.50
2022-12-25T12:42:54.699Z,1.00
2022-12-25T12:45:28.345Z,0.52
2022-12-25T12:47:55.428Z,0.60
2022-12-25T12:50:36.095Z,0.45
2022-12-25T12:53:24.197Z,0.75
2022-12-25T12:55:52.607Z,0.85
2022-12-25T12:58:33.459Z,0.70
2022-12-25T13:01:18.367Z,0.80
2022-12-25T13:04:06.408Z,0.80
2022-12-25T13:06:43.773Z,0.75
2022-12-25T13:09:28.184Z,0.90
2022-12-25T13:11:54.795Z,0.68
2022-12-25T13:14:23.713Z,0.90
2022-12-25T13:16:53.425Z,0.95
2022-12-25T13:19:25.898Z,0.63
2022-12-25T13:21:53.899Z,0.50
2022-12-25T13:24:26.644Z,0.80
2022-12-25T13:26:53.776Z,0.63
2022-12-25T13:29:34.470Z,0.80
2022-12-25T13:32:03.585Z,0.63
2022-12-25T13:34:38.340Z,0.60
2022-12-25T13:37:10.247Z,0.65
2022-12-25T13:39:39.459Z,1.38
2022-12-25T13:42:09.381Z,1.10
2022-12-25T13:44:47.773Z,0.73
2022-12-25T13:47:17.037Z,0.50
2022-12-25T13:49:43.740Z,0.55
2022-12-25T13:52:13.234Z,0.50
2022-12-25T13:54:40.046Z,0.55
2022-12-25T13:57:15.317Z,0.47
2022-12-25T13:59:44.314Z,4.38
2022-12-25T14:02:22.623Z,1.70
2022-12-25T14:04:49.202Z,5.13
2022-12-25T14:07:21.045Z,4.13
2022-12-25T14:09:52.241Z,2.58
2022-12-25T14:12:19.867Z,0.90
2022-12-25T14:14:46.755Z,3.80
2022-12-25T14:17:13.362Z,4.43
2022-12-25T14:19:40.051Z,3.47
2022-12-25T14:22:22.514Z,1.70
2022-12-25T14:24:49.344Z,1.58
2022-12-25T14:27:27.960Z,1.08
2022-12-25T14:29:56.643Z,1.20
2022-12-25T14:32:27.266Z,1.13
2022-12-25T14:34:59.542Z,1.00
2022-12-25T14:37:29.482Z,0.90
2022-12-25T14:39:57.660Z,1.10
2022-12-25T14:42:27.910Z,1.00
2022-12-25T14:44:59.723Z,2.80
2022-12-25T14:47:27.469Z,22.55
2022-12-25T14:49:54.629Z,78.75
2022-12-25T14:52:21.137Z,37.42
2022-12-25T14:55:01.154Z,6.00
2022-12-25T14:57:32.114Z,9.48
2022-12-25T15:00:01.748Z,1.27
2022-12-25T15:02:40.293Z,1.65
2022-12-25T15:05:25.153Z,2.97
2022-12-25T15:07:59.859Z,1.58
2022-12-25T15:10:59.016Z,1.95
2022-12-25T15:13:14.530Z,1.63
2022-12-25T15:15:53.333Z,1.90
2022-12-25T15:18:22.217Z,1.70
2022-12-25T15:20:54.876Z,1.30
2022-12-25T15:23:21.947Z,1.80
2022-12-25T15:25:50.939Z,1.60
2022-12-25T15:28:17.448Z,3.28
2022-12-25T15:30:44.212Z,5.07
2022-12-25T15:33:14.391Z,2.95
2022-12-25T15:35:41.274Z,2.80
2022-12-25T15:38:07.835Z,2.53
2022-12-25T15:40:34.652Z,2.20
2022-12-25T15:43:06.365Z,2.53
2022-12-25T15:45:38.242Z,3.75
2022-12-25T15:48:04.856Z,8.95
2022-12-25T15:50:32.687Z,4.65
2022-12-25T15:52:59.245Z,4.20
2022-12-25T15:55:25.839Z,3.15
2022-12-25T15:57:54.537Z,2.47
2022-12-25T16:00:23.181Z,2.45
2022-12-25T16:02:50.378Z,2.00
2022-12-25T16:05:17.050Z,2.20
2022-12-25T16:07:43.726Z,1.17
2022-12-25T16:10:14.890Z,1.27
2022-12-25T16:12:41.520Z,0.98
2022-12-25T16:15:10.562Z,1.20
2022-12-25T16:17:37.061Z,1.40
2022-12-25T16:20:04.531Z,1.40
2022-12-25T16:22:31.859Z,1.20
2022-12-25T16:24:58.359Z,1.15
2022-12-25T16:27:25.276Z,1.00
2022-12-25T16:29:52.114Z,1.15
2022-12-25T16:32:18.639Z,1.10
2022-12-25T16:34:45.533Z,1.10
2022-12-25T16:37:12.017Z,0.90
2022-12-25T16:39:38.626Z,1.40
2022-12-25T16:42:05.302Z,0.85
2022-12-25T16:44:31.857Z,1.23
2022-12-25T16:46:58.464Z,1.20
2022-12-25T16:49:25.088Z,1.20
2022-12-25T16:51:51.673Z,1.10
2022-12-25T16:54:18.262Z,1.20
2022-12-25T16:56:44.767Z,1.45
2022-12-25T16:59:11.567Z,1.20
2022-12-25T17:01:43.156Z,1.52
2022-12-25T17:04:10.301Z,0.90
2022-12-25T17:06:37.438Z,0.93
2022-12-25T17:09:04.705Z,2.80
2022-12-25T17:11:32.295Z,1.88
2022-12-25T17:14:02.103Z,2.28
2022-12-25T17:16:31.347Z,1.48
2022-12-25T17:19:04.385Z,1.27
2022-12-25T17:21:35.096Z,1.30
2022-12-25T17:24:03.980Z,1.20
2022-12-25T17:26:32.202Z,1.25
2022-12-25T17:28:58.934Z,1.17
2022-12-25T17:31:25.453Z,1.40
2022-12-25T17:33:52.084Z,1.63
2022-12-25T17:36:20.950Z,1.52
2022-12-25T17:38:48.212Z,1.65
2022-12-25T17:41:16.552Z,1.70
2022-12-25T17:43:45.478Z,1.58
2022-12-25T17:46:20.636Z,1.17
2022-12-25T17:48:47.670Z,1.42
2022-12-25T17:51:16.527Z,1.17
2022-12-25T17:53:45.489Z,1.65
2022-12-25T17:56:13.061Z,1.25
2022-12-25T17:58:39.799Z,1.55
2022-12-25T18:01:13.671Z,1.60
2022-12-25T18:03:40.259Z,1.35
2022-12-25T18:06:09.259Z,1.38
2022-12-25T18:08:39.626Z,1.38
2022-12-25T18:11:09.475Z,1.27
2022-12-25T18:13:37.800Z,1.35
2022-12-25T18:16:07.106Z,1.50
2022-12-25T18:18:34.843Z,1.40
2022-12-25T18:21:02.166Z,1.17
2022-12-25T18:23:29.442Z,1.77
2022-12-25T18:25:56.396Z,1.25
2022-12-25T18:28:23.066Z,1.38
2022-12-25T18:30:49.638Z,1.25
2022-12-25T18:33:16.191Z,1.40
2022-12-25T18:35:44.108Z,1.42
2022-12-25T18:38:11.558Z,1.98
2022-12-25T18:40:46.994Z,1.38
2022-12-25T18:43:14.176Z,1.30
2022-12-25T18:45:41.611Z,1.35
2022-12-25T18:48:10.273Z,1.45
2022-12-25T18:50:40.109Z,1.50
2022-12-25T18:53:07.211Z,1.33
2022-12-25T18:55:35.570Z,1.50
2022-12-25T18:58:02.570Z,1.50
2022-12-25T19:00:29.167Z,1.45
2022-12-25T19:02:58.340Z,1.40
2022-12-25T19:05:25.636Z,1.60
2022-12-25T19:07:52.199Z,1.40
2022-12-25T19:10:18.817Z,1.50
2022-12-25T19:12:45.361Z,1.27
2022-12-25T19:15:12.227Z,1.60
2022-12-25T19:17:38.818Z,1.40
2022-12-25T19:20:06.180Z,1.13
2022-12-25T19:22:32.800Z,1.38
2022-12-25T19:24:59.361Z,1.30
2022-12-25T19:27:25.940Z,1.60
2022-12-25T19:29:52.691Z,1.30
2022-12-25T19:32:19.277Z,1.25
2022-12-25T19:34:45.825Z,1.08
2022-12-25T19:37:12.318Z,1.33
2022-12-25T19:39:39.769Z,1.73
2022-12-25T19:42:06.342Z,1.75
2022-12-25T19:44:32.892Z,1.42
2022-12-25T19:46:59.398Z,1.30
2022-12-25T19:49:25.911Z,1.20
2022-12-25T19:51:52.789Z,1.33
2022-12-25T19:54:20.703Z,1.27
2022-12-25T19:56:48.559Z,1.55
2022-12-25T19:59:15.933Z,1.40
2022-12-25T20:01:43.098Z,1.67
2022-12-25T20:04:10.354Z,1.70
2022-12-25T20:06:39.609Z,1.30
2022-12-25T20:09:15.272Z,1.60
2022-12-25T20:11:43.074Z,1.33
2022-12-25T20:14:12.697Z,1.45
2022-12-25T20:16:40.536Z,1.60
2022-12-25T20:19:07.505Z,1.45
2022-12-25T20:21:34.450Z,1.80
2022-12-25T20:24:00.978Z,1.15
2022-12-25T20:26:30.694Z,1.15
2022-12-25T20:28:58.133Z,1.58
2022-12-25T20:31:27.550Z,1.30
2022-12-25T20:33:59.638Z,1.40
2022-12-25T20:36:31.210Z,1.52
2022-12-25T20:39:02.782Z,1.67
2022-12-25T20:41:30.006Z,1.30
2022-12-25T20:43:57.751Z,1.25
2022-12-25T20:46:25.507Z,2.10
2022-12-25T20:48:52.846Z,1.38
2022-12-25T20:51:22.578Z,1.40
2022-12-25T20:53:50.096Z,1.15
2022-12-25T20:56:18.757Z,1.50
2022-12-25T20:58:45.442Z,1.45
2022-12-25T21:01:15.842Z,1.50
2022-12-25T21:03:43.384Z,0.95
2022-12-25T21:06:10.600Z,1.60
2022-12-25T21:08:37.843Z,1.33
2022-12-25T21:11:08.378Z,1.67
2022-12-25T21:13:41.199Z,1.20
2022-12-25T21:16:11.143Z,1.48
2022-12-25T21:18:38.409Z,0.77
2022-12-25T21:21:07.328Z,1.60
2022-12-25T21:23:36.082Z,2.13
2022-12-25T21:26:29.670Z,1.90
2022-12-25T21:29:00.052Z,1.35
2022-12-25T21:31:26.732Z,1.80
2022-12-25T21:33:55.318Z,1.30
2022-12-25T21:36:27.205Z,1.48
2022-12-25T21:39:01.035Z,1.67
2022-12-25T21:41:30.480Z,2.55
2022-12-25T21:43:57.197Z,1.60
2022-12-25T21:46:24.742Z,1.40
2022-12-25T21:48:51.656Z,1.88
2022-12-25T21:51:40.116Z,2.47
2022-12-25T21:54:07.462Z,1.65
2022-12-25T21:56:43.051Z,1.50
2022-12-25T21:59:13.334Z,2.05
2022-12-25T22:01:40.133Z,1.50
2022-12-25T22:04:08.498Z,1.70
2022-12-25T22:06:54.355Z,2.00
2022-12-25T22:09:21.761Z,1.92
2022-12-25T22:12:07.272Z,1.98
2022-12-25T22:14:57.015Z,1.55
2022-12-25T22:17:45.475Z,1.88
2022-12-25T22:20:16.749Z,1.55
2022-12-25T22:22:43.391Z,1.75
2022-12-25T22:25:10.819Z,2.42
2022-12-25T22:27:39.381Z,1.70
2022-12-25T22:30:09.122Z,1.60
2022-12-25T22:32:36.067Z,1.75
2022-12-25T22:35:02.944Z,1.80
2022-12-25T22:37:29.779Z,1.58
2022-12-25T22:39:56.305Z,1.60
2022-12-25T22:42:22.918Z,1.95
2022-12-25T22:44:49.462Z,1.48
2022-12-25T22:47:16.063Z,1.83
2022-12-25T22:49:42.660Z,3.05
2022-12-25T22:52:09.817Z,1.77
2022-12-25T22:54:37.092Z,1.65
2022-12-25T22:57:04.132Z,1.98
2022-12-25T22:59:30.898Z,2.15
2022-12-25T23:01:57.603Z,1.58
2022-12-25T23:04:26.036Z,2.15
2022-12-25T23:06:52.564Z,1.70
2022-12-25T23:09:24.887Z,1.70
2022-12-25T23:11:51.607Z,1.40
2022-12-25T23:14:36.692Z,1.98
2022-12-25T23:17:03.244Z,1.67
2022-12-25T23:19:48.361Z,1.92
2022-12-25T23:22:34.529Z,1.95
2022-12-25T23:25:19.646Z,1.73
2022-12-25T23:27:46.378Z,1.85
2022-12-25T23:30:15.535Z,2.05
2022-12-25T23:32:44.493Z,1.70
2022-12-25T23:35:11.762Z,1.73
2022-12-25T23:37:38.578Z,2.00
2022-12-25T23:40:05.879Z,1.83
2022-12-25T23:42:32.571Z,1.60
2022-12-25T23:44:59.112Z,2.28
2022-12-25T23:47:25.682Z,1.60
2022-12-25T23:49:52.389Z,1.58
2022-12-25T23:52:18.961Z,1.60
2022-12-25T23:54:45.518Z,2.00
2022-12-25T23:57:16.578Z,1.45
2022-12-25T23:59:43.221Z,1.90
